Mine La Motte, Missouri
Current Conditions -  °F | °C
As of 12:35 PM on Wednesday 26 Nov 2014 (Local Time) from KFAM Reporting Station
Overcast Overcast  
Wind Chill: 30°   Ceiling: 800
Heat Index: 34°   Visibility: 0.25mi
Dew Point: 30°   Wind: 5mph
Humidity: 87%   Direction: 140°SE
Pressure: 29.96"   Gusts: NA
Location:  37.4979°N, 90.375°W
Report Text: KFAM 261835Z AUTO 14004KT 1/4SM OVC008 01/M01 A2996 RMK AO1 P0001
Loading
Personal Weather Stations






























Interactive Weather Map New forecast layout! Learn more

10-Day Weather Forecast

Advertisements
Track Severe Weather on mobile